sensor_id;sensor_type;location;lat;lon;timestamp;temperature;humidity
25582;DHT22;13462;50.764;4.332;2022-08-19T00:01:17;18.30;99.90
25582;DHT22;13462;50.764;4.332;2022-08-19T00:03:43;18.30;99.90
25582;DHT22;13462;50.764;4.332;2022-08-19T00:06:09;18.30;99.90
25582;DHT22;13462;50.764;4.332;2022-08-19T00:08:35;18.30;99.90
25582;DHT22;13462;50.764;4.332;2022-08-19T00:11:01;18.30;99.90
25582;DHT22;13462;50.764;4.332;2022-08-19T00:13:27;18.30;99.90
25582;DHT22;13462;50.764;4.332;2022-08-19T00:15:55;18.20;99.90
25582;DHT22;13462;50.764;4.332;2022-08-19T00:18:20;18.20;99.90
25582;DHT22;13462;50.764;4.332;2022-08-19T00:20:46;18.40;99.90
25582;DHT22;13462;50.764;4.332;2022-08-19T00:23:12;18.50;99.90
25582;DHT22;13462;50.764;4.332;2022-08-19T00:25:38;18.60;99.90
25582;DHT22;13462;50.764;4.332;2022-08-19T00:28:04;18.60;99.90
25582;DHT22;13462;50.764;4.332;2022-08-19T00:30:30;18.80;99.90
25582;DHT22;13462;50.764;4.332;2022-08-19T00:32:57;18.90;99.90
25582;DHT22;13462;50.764;4.332;2022-08-19T00:35:23;18.90;99.90
25582;DHT22;13462;50.764;4.332;2022-08-19T00:37:49;18.90;99.90
25582;DHT22;13462;50.764;4.332;2022-08-19T00:40:16;18.90;99.90
25582;DHT22;13462;50.764;4.332;2022-08-19T00:42:43;18.90;99.90
25582;DHT22;13462;50.764;4.332;2022-08-19T00:45:12;18.90;99.90
25582;DHT22;13462;50.764;4.332;2022-08-19T00:47:38;18.90;99.90
25582;DHT22;13462;50.764;4.332;2022-08-19T00:50:05;18.90;99.90
25582;DHT22;13462;50.764;4.332;2022-08-19T00:52:36;18.90;99.90
25582;DHT22;13462;50.764;4.332;2022-08-19T00:55:05;18.90;99.90
25582;DHT22;13462;50.764;4.332;2022-08-19T00:57:36;18.90;99.90
25582;DHT22;13462;50.764;4.332;2022-08-19T01:00:07;19.10;99.90
25582;DHT22;13462;50.764;4.332;2022-08-19T01:02:35;19.20;99.90
25582;DHT22;13462;50.764;4.332;2022-08-19T01:05:05;19.10;99.90
25582;DHT22;13462;50.764;4.332;2022-08-19T01:07:31;19.10;99.90
25582;DHT22;13462;50.764;4.332;2022-08-19T01:09:57;19.00;99.90
25582;DHT22;13462;50.764;4.332;2022-08-19T01:12:24;18.90;99.90
25582;DHT22;13462;50.764;4.332;2022-08-19T01:14:51;18.90;99.90
25582;DHT22;13462;50.764;4.332;2022-08-19T01:17:18;18.70;99.90
25582;DHT22;13462;50.764;4.332;2022-08-19T01:19:45;18.60;99.90
25582;DHT22;13462;50.764;4.332;2022-08-19T01:24:50;18.50;99.90
25582;DHT22;13462;50.764;4.332;2022-08-19T01:27:17;18.30;99.90
25582;DHT22;13462;50.764;4.332;2022-08-19T01:29:44;18.30;99.90
25582;DHT22;13462;50.764;4.332;2022-08-19T01:32:15;18.20;99.90
25582;DHT22;13462;50.764;4.332;2022-08-19T01:34:42;18.20;99.90
25582;DHT22;13462;50.764;4.332;2022-08-19T01:37:13;18.20;99.90
25582;DHT22;13462;50.764;4.332;2022-08-19T01:39:41;18.10;99.90
25582;DHT22;13462;50.764;4.332;2022-08-19T01:42:08;18.10;99.90
25582;DHT22;13462;50.764;4.332;2022-08-19T01:44:35;18.00;99.90
25582;DHT22;13462;50.764;4.332;2022-08-19T01:47:01;18.00;99.90
25582;DHT22;13462;50.764;4.332;2022-08-19T01:49:27;17.90;99.90
25582;DHT22;13462;50.764;4.332;2022-08-19T01:51:54;17.90;99.90
25582;DHT22;13462;50.764;4.332;2022-08-19T01:54:22;18.00;99.90
25582;DHT22;13462;50.764;4.332;2022-08-19T01:56:50;18.00;99.90
25582;DHT22;13462;50.764;4.332;2022-08-19T01:59:19;17.90;99.90
25582;DHT22;13462;50.764;4.332;2022-08-19T02:01:46;17.80;99.90
25582;DHT22;13462;50.764;4.332;2022-08-19T02:04:11;17.80;99.90
25582;DHT22;13462;50.764;4.332;2022-08-19T02:06:37;17.80;99.90
25582;DHT22;13462;50.764;4.332;2022-08-19T02:09:08;17.80;99.90
25582;DHT22;13462;50.764;4.332;2022-08-19T02:11:36;17.80;99.90
25582;DHT22;13462;50.764;4.332;2022-08-19T02:14:04;17.70;99.90
25582;DHT22;13462;50.764;4.332;2022-08-19T02:16:31;17.60;99.90
25582;DHT22;13462;50.764;4.332;2022-08-19T02:18:58;17.60;99.90
25582;DHT22;13462;50.764;4.332;2022-08-19T02:21:28;17.60;99.90
25582;DHT22;13462;50.764;4.332;2022-08-19T02:23:54;17.60;99.90
25582;DHT22;13462;50.764;4.332;2022-08-19T02:26:21;17.50;99.90
25582;DHT22;13462;50.764;4.332;2022-08-19T02:28:49;17.50;99.90
25582;DHT22;13462;50.764;4.332;2022-08-19T02:31:18;17.40;99.90
25582;DHT22;13462;50.764;4.332;2022-08-19T02:33:44;17.30;99.90
25582;DHT22;13462;50.764;4.332;2022-08-19T02:36:11;17.30;99.90
25582;DHT22;13462;50.764;4.332;2022-08-19T02:38:37;17.30;99.90
25582;DHT22;13462;50.764;4.332;2022-08-19T02:41:11;17.40;99.90
25582;DHT22;13462;50.764;4.332;2022-08-19T02:43:37;17.40;99.90
25582;DHT22;13462;50.764;4.332;2022-08-19T02:46:14;17.40;99.90
25582;DHT22;13462;50.764;4.332;2022-08-19T02:48:40;17.30;99.90
25582;DHT22;13462;50.764;4.332;2022-08-19T02:51:06;17.20;99.90
25582;DHT22;13462;50.764;4.332;2022-08-19T02:53:31;17.30;99.90
25582;DHT22;13462;50.764;4.332;2022-08-19T02:55:57;17.30;99.90
25582;DHT22;13462;50.764;4.332;2022-08-19T02:58:23;17.20;99.90
25582;DHT22;13462;50.764;4.332;2022-08-19T03:00:52;17.20;99.90
25582;DHT22;13462;50.764;4.332;2022-08-19T03:03:19;17.10;99.90
25582;DHT22;13462;50.764;4.332;2022-08-19T03:05:45;17.10;99.90
25582;DHT22;13462;50.764;4.332;2022-08-19T03:08:12;17.10;99.90
25582;DHT22;13462;50.764;4.332;2022-08-19T03:10:43;17.00;99.90
25582;DHT22;13462;50.764;4.332;2022-08-19T03:13:10;17.00;99.90
25582;DHT22;13462;50.764;4.332;2022-08-19T03:15:40;17.10;99.90
25582;DHT22;13462;50.764;4.332;2022-08-19T03:18:06;17.00;99.90
25582;DHT22;13462;50.764;4.332;2022-08-19T03:20:31;17.00;99.90
25582;DHT22;13462;50.764;4.332;2022-08-19T03:22:58;16.90;99.90
25582;DHT22;13462;50.764;4.332;2022-08-19T03:25:24;17.00;99.90
25582;DHT22;13462;50.764;4.332;2022-08-19T03:27:50;17.00;99.90
25582;DHT22;13462;50.764;4.332;2022-08-19T03:30:15;17.00;99.90
25582;DHT22;13462;50.764;4.332;2022-08-19T03:32:41;16.90;99.90
25582;DHT22;13462;50.764;4.332;2022-08-19T03:35:07;16.90;99.90
25582;DHT22;13462;50.764;4.332;2022-08-19T03:37:33;17.00;99.90
25582;DHT22;13462;50.764;4.332;2022-08-19T03:39:58;16.80;99.90
25582;DHT22;13462;50.764;4.332;2022-08-19T03:42:24;16.90;99.90
25582;DHT22;13462;50.764;4.332;2022-08-19T03:44:52;16.90;99.90
25582;DHT22;13462;50.764;4.332;2022-08-19T03:47:18;16.80;99.90
25582;DHT22;13462;50.764;4.332;2022-08-19T03:49:44;16.80;99.90
25582;DHT22;13462;50.764;4.332;2022-08-19T03:52:10;16.80;99.90
25582;DHT22;13462;50.764;4.332;2022-08-19T03:54:36;16.80;99.90
25582;DHT22;13462;50.764;4.332;2022-08-19T03:57:03;16.80;99.90
25582;DHT22;13462;50.764;4.332;2022-08-19T03:59:33;16.80;99.90
25582;DHT22;13462;50.764;4.332;2022-08-19T04:02:02;16.80;99.90
25582;DHT22;13462;50.764;4.332;2022-08-19T04:04:28;16.80;99.90
25582;DHT22;13462;50.764;4.332;2022-08-19T04:06:55;16.80;99.90
25582;DHT22;13462;50.764;4.332;2022-08-19T04:09:21;16.80;99.90
25582;DHT22;13462;50.764;4.332;2022-08-19T04:11:50;16.80;99.90
25582;DHT22;13462;50.764;4.332;2022-08-19T04:14:21;16.90;99.90
25582;DHT22;13462;50.764;4.332;2022-08-19T04:16:48;16.80;99.90
25582;DHT22;13462;50.764;4.332;2022-08-19T04:19:15;16.80;99.90
25582;DHT22;13462;50.764;4.332;2022-08-19T04:21:44;16.80;99.90
25582;DHT22;13462;50.764;4.332;2022-08-19T04:24:11;16.60;99.90
25582;DHT22;13462;50.764;4.332;2022-08-19T04:26:37;16.60;99.90
25582;DHT22;13462;50.764;4.332;2022-08-19T04:29:08;16.50;99.90
25582;DHT22;13462;50.764;4.332;2022-08-19T04:31:34;16.50;99.90
25582;DHT22;13462;50.764;4.332;2022-08-19T04:34:04;16.40;99.90
25582;DHT22;13462;50.764;4.332;2022-08-19T04:36:33;16.40;99.90
25582;DHT22;13462;50.764;4.332;2022-08-19T04:39:04;16.30;99.90
25582;DHT22;13462;50.764;4.332;2022-08-19T04:41:31;16.30;99.90
25582;DHT22;13462;50.764;4.332;2022-08-19T04:44:15;16.20;99.90
25582;DHT22;13462;50.764;4.332;2022-08-19T04:46:44;16.20;99.90
25582;DHT22;13462;50.764;4.332;2022-08-19T04:49:10;16.20;99.90
25582;DHT22;13462;50.764;4.332;2022-08-19T04:51:41;16.30;99.90
25582;DHT22;13462;50.764;4.332;2022-08-19T04:54:08;16.30;99.90
25582;DHT22;13462;50.764;4.332;2022-08-19T04:56:34;16.30;99.90
25582;DHT22;13462;50.764;4.332;2022-08-19T04:59:00;16.30;99.90
25582;DHT22;13462;50.764;4.332;2022-08-19T05:01:30;16.30;99.90
25582;DHT22;13462;50.764;4.332;2022-08-19T05:03:58;16.30;99.90
25582;DHT22;13462;50.764;4.332;2022-08-19T05:06:25;16.40;99.90
25582;DHT22;13462;50.764;4.332;2022-08-19T05:08:51;16.30;99.90
25582;DHT22;13462;50.764;4.332;2022-08-19T05:11:23;16.30;99.90
25582;DHT22;13462;50.764;4.332;2022-08-19T05:13:50;16.30;99.90
25582;DHT22;13462;50.764;4.332;2022-08-19T05:16:19;16.40;99.90
25582;DHT22;13462;50.764;4.332;2022-08-19T05:18:45;16.40;99.90
25582;DHT22;13462;50.764;4.332;2022-08-19T05:21:40;16.40;99.90
25582;DHT22;13462;50.764;4.332;2022-08-19T05:24:24;16.60;99.90
25582;DHT22;13462;50.764;4.332;2022-08-19T05:26:52;16.80;99.90
25582;DHT22;13462;50.764;4.332;2022-08-19T05:29:20;16.90;99.90
25582;DHT22;13462;50.764;4.332;2022-08-19T05:31:48;16.90;99.90
25582;DHT22;13462;50.764;4.332;2022-08-19T05:34:18;17.00;99.90
25582;DHT22;13462;50.764;4.332;2022-08-19T05:36:48;17.00;99.90
25582;DHT22;13462;50.764;4.332;2022-08-19T05:39:17;17.00;99.90
25582;DHT22;13462;50.764;4.332;2022-08-19T05:41:51;17.00;99.90
25582;DHT22;13462;50.764;4.332;2022-08-19T05:44:18;17.20;99.90
25582;DHT22;13462;50.764;4.332;2022-08-19T05:46:47;17.30;99.90
25582;DHT22;13462;50.764;4.332;2022-08-19T05:49:14;17.30;99.90
25582;DHT22;13462;50.764;4.332;2022-08-19T05:51:41;17.30;99.90
25582;DHT22;13462;50.764;4.332;2022-08-19T05:54:07;17.40;99.90
25582;DHT22;13462;50.764;4.332;2022-08-19T05:56:34;17.60;99.90
25582;DHT22;13462;50.764;4.332;2022-08-19T05:59:04;17.80;99.90
25582;DHT22;13462;50.764;4.332;2022-08-19T06:01:34;17.80;99.90
25582;DHT22;13462;50.764;4.332;2022-08-19T06:04:00;17.90;99.90
25582;DHT22;13462;50.764;4.332;2022-08-19T06:06:26;18.00;99.90
25582;DHT22;13462;50.764;4.332;2022-08-19T06:08:52;18.10;99.90
25582;DHT22;13462;50.764;4.332;2022-08-19T06:11:34;18.10;99.90
25582;DHT22;13462;50.764;4.332;2022-08-19T06:14:01;18.10;99.90
25582;DHT22;13462;50.764;4.332;2022-08-19T06:16:28;18.30;99.90
25582;DHT22;13462;50.764;4.332;2022-08-19T06:18:55;18.80;99.90
25582;DHT22;13462;50.764;4.332;2022-08-19T06:21:24;20.00;99.90
25582;DHT22;13462;50.764;4.332;2022-08-19T06:23:51;21.20;99.90
25582;DHT22;13462;50.764;4.332;2022-08-19T06:26:18;22.00;99.90
25582;DHT22;13462;50.764;4.332;2022-08-19T06:28:45;22.80;99.90
25582;DHT22;13462;50.764;4.332;2022-08-19T06:31:20;23.50;99.90
25582;DHT22;13462;50.764;4.332;2022-08-19T06:33:47;23.60;99.90
25582;DHT22;13462;50.764;4.332;2022-08-19T06:36:21;23.60;99.90
25582;DHT22;13462;50.764;4.332;2022-08-19T06:38:50;23.60;99.90
25582;DHT22;13462;50.764;4.332;2022-08-19T06:41:15;23.60;99.90
25582;DHT22;13462;50.764;4.332;2022-08-19T06:43:41;23.90;99.90
25582;DHT22;13462;50.764;4.332;2022-08-19T06:46:15;24.10;99.90
25582;DHT22;13462;50.764;4.332;2022-08-19T06:48:42;23.50;99.90
25582;DHT22;13462;50.764;4.332;2022-08-19T06:51:07;22.70;99.90
25582;DHT22;13462;50.764;4.332;2022-08-19T06:53:33;22.50;99.90
25582;DHT22;13462;50.764;4.332;2022-08-19T06:55:59;22.30;99.90
25582;DHT22;13462;50.764;4.332;2022-08-19T06:58:29;22.10;99.90
25582;DHT22;13462;50.764;4.332;2022-08-19T07:00:59;21.70;99.90
25582;DHT22;13462;50.764;4.332;2022-08-19T07:03:32;21.60;99.90
25582;DHT22;13462;50.764;4.332;2022-08-19T07:06:03;21.50;99.90
25582;DHT22;13462;50.764;4.332;2022-08-19T07:08:29;21.30;99.90
25582;DHT22;13462;50.764;4.332;2022-08-19T07:10:55;21.10;99.90
25582;DHT22;13462;50.764;4.332;2022-08-19T07:13:21;20.90;99.90
25582;DHT22;13462;50.764;4.332;2022-08-19T07:15:48;20.50;99.90
25582;DHT22;13462;50.764;4.332;2022-08-19T07:18:17;20.40;99.90
25582;DHT22;13462;50.764;4.332;2022-08-19T07:20:42;20.30;99.90
25582;DHT22;13462;50.764;4.332;2022-08-19T07:23:09;20.40;99.90
25582;DHT22;13462;50.764;4.332;2022-08-19T07:25:37;20.50;99.90
25582;DHT22;13462;50.764;4.332;2022-08-19T07:28:03;20.80;99.90
25582;DHT22;13462;50.764;4.332;2022-08-19T07:30:30;20.90;99.90
25582;DHT22;13462;50.764;4.332;2022-08-19T07:32:55;21.00;99.90
25582;DHT22;13462;50.764;4.332;2022-08-19T07:35:22;20.90;99.90
25582;DHT22;13462;50.764;4.332;2022-08-19T07:37:49;20.70;99.90
25582;DHT22;13462;50.764;4.332;2022-08-19T07:40:15;20.90;99.90
25582;DHT22;13462;50.764;4.332;2022-08-19T07:42:41;21.20;99.90
25582;DHT22;13462;50.764;4.332;2022-08-19T07:45:08;21.50;99.90
25582;DHT22;13462;50.764;4.332;2022-08-19T07:47:34;21.90;99.90
25582;DHT22;13462;50.764;4.332;2022-08-19T07:50:00;22.20;99.90
25582;DHT22;13462;50.764;4.332;2022-08-19T07:52:26;22.20;99.90
25582;DHT22;13462;50.764;4.332;2022-08-19T07:54:52;22.30;99.90
25582;DHT22;13462;50.764;4.332;2022-08-19T07:57:18;22.50;99.90
25582;DHT22;13462;50.764;4.332;2022-08-19T07:59:44;23.00;99.90
25582;DHT22;13462;50.764;4.332;2022-08-19T08:02:10;23.60;99.90
25582;DHT22;13462;50.764;4.332;2022-08-19T08:04:36;24.20;99.90
25582;DHT22;13462;50.764;4.332;2022-08-19T08:07:20;24.50;99.90
25582;DHT22;13462;50.764;4.332;2022-08-19T08:10:06;24.00;99.90
25582;DHT22;13462;50.764;4.332;2022-08-19T08:12:38;23.60;99.90
25582;DHT22;13462;50.764;4.332;2022-08-19T08:15:12;23.30;99.90
25582;DHT22;13462;50.764;4.332;2022-08-19T08:17:42;22.90;99.90
25582;DHT22;13462;50.764;4.332;2022-08-19T08:20:08;22.50;99.90
25582;DHT22;13462;50.764;4.332;2022-08-19T08:22:34;22.40;99.90
25582;DHT22;13462;50.764;4.332;2022-08-19T08:25:21;22.60;99.90
25582;DHT22;13462;50.764;4.332;2022-08-19T08:27:48;22.50;99.90
25582;DHT22;13462;50.764;4.332;2022-08-19T08:30:20;22.40;99.90
25582;DHT22;13462;50.764;4.332;2022-08-19T08:32:47;22.20;99.90
25582;DHT22;13462;50.764;4.332;2022-08-19T08:35:16;22.10;99.90
25582;DHT22;13462;50.764;4.332;2022-08-19T08:37:45;22.10;99.90
25582;DHT22;13462;50.764;4.332;2022-08-19T08:43:37;22.10;99.90
25582;DHT22;13462;50.764;4.332;2022-08-19T08:52:33;22.10;99.90
25582;DHT22;13462;50.764;4.332;2022-08-19T08:55:05;21.80;99.90
25582;DHT22;13462;50.764;4.332;2022-08-19T08:57:56;21.60;99.90
25582;DHT22;13462;50.764;4.332;2022-08-19T09:00:28;21.70;99.90
25582;DHT22;13462;50.764;4.332;2022-08-19T09:02:55;21.60;99.90
25582;DHT22;13462;50.764;4.332;2022-08-19T09:05:23;21.70;99.90
25582;DHT22;13462;50.764;4.332;2022-08-19T09:08:16;21.60;99.90
25582;DHT22;13462;50.764;4.332;2022-08-19T09:10:49;21.30;99.90
25582;DHT22;13462;50.764;4.332;2022-08-19T09:13:38;21.30;99.90
25582;DHT22;13462;50.764;4.332;2022-08-19T09:16:14;21.40;99.90
25582;DHT22;13462;50.764;4.332;2022-08-19T09:18:49;21.50;99.90
25582;DHT22;13462;50.764;4.332;2022-08-19T09:21:18;21.50;99.90
25582;DHT22;13462;50.764;4.332;2022-08-19T09:23:44;21.70;99.90
25582;DHT22;13462;50.764;4.332;2022-08-19T09:26:15;21.80;99.90
25582;DHT22;13462;50.764;4.332;2022-08-19T09:28:42;22.00;99.90
25582;DHT22;13462;50.764;4.332;2022-08-19T09:31:12;22.30;99.90
25582;DHT22;13462;50.764;4.332;2022-08-19T09:33:39;22.40;99.90
25582;DHT22;13462;50.764;4.332;2022-08-19T09:36:10;22.50;99.90
25582;DHT22;13462;50.764;4.332;2022-08-19T09:38:37;22.30;99.90
25582;DHT22;13462;50.764;4.332;2022-08-19T09:41:10;22.10;99.90
25582;DHT22;13462;50.764;4.332;2022-08-19T09:43:40;21.80;99.90
25582;DHT22;13462;50.764;4.332;2022-08-19T09:46:08;21.80;99.90
25582;DHT22;13462;50.764;4.332;2022-08-19T09:48:41;21.80;99.90
25582;DHT22;13462;50.764;4.332;2022-08-19T09:51:12;21.90;99.90
25582;DHT22;13462;50.764;4.332;2022-08-19T09:53:41;22.10;99.90
25582;DHT22;13462;50.764;4.332;2022-08-19T09:56:07;22.30;99.90
25582;DHT22;13462;50.764;4.332;2022-08-19T09:58:33;22.30;99.90
25582;DHT22;13462;50.764;4.332;2022-08-19T10:01:01;22.30;99.90
25582;DHT22;13462;50.764;4.332;2022-08-19T10:03:29;22.30;99.90
25582;DHT22;13462;50.764;4.332;2022-08-19T10:05:56;22.10;99.90
25582;DHT22;13462;50.764;4.332;2022-08-19T10:08:29;22.10;99.90
25582;DHT22;13462;50.764;4.332;2022-08-19T10:10:56;22.20;99.90
25582;DHT22;13462;50.764;4.332;2022-08-19T10:13:25;22.30;99.90
25582;DHT22;13462;50.764;4.332;2022-08-19T10:16:02;22.30;99.90
25582;DHT22;13462;50.764;4.332;2022-08-19T10:18:28;22.40;99.90
25582;DHT22;13462;50.764;4.332;2022-08-19T10:21:04;22.40;99.90
25582;DHT22;13462;50.764;4.332;2022-08-19T10:23:35;22.50;99.90
25582;DHT22;13462;50.764;4.332;2022-08-19T10:26:02;22.60;99.90
25582;DHT22;13462;50.764;4.332;2022-08-19T10:28:32;22.70;99.90
25582;DHT22;13462;50.764;4.332;2022-08-19T10:31:10;22.10;99.90
25582;DHT22;13462;50.764;4.332;2022-08-19T10:33:37;21.90;99.90
25582;DHT22;13462;50.764;4.332;2022-08-19T10:36:06;22.30;99.90
25582;DHT22;13462;50.764;4.332;2022-08-19T10:38:32;22.50;99.90
25582;DHT22;13462;50.764;4.332;2022-08-19T10:41:07;22.90;99.90
25582;DHT22;13462;50.764;4.332;2022-08-19T10:43:33;23.10;99.90
25582;DHT22;13462;50.764;4.332;2022-08-19T10:46:02;23.20;99.90
25582;DHT22;13462;50.764;4.332;2022-08-19T10:48:29;23.20;99.90
25582;DHT22;13462;50.764;4.332;2022-08-19T10:50:57;22.90;99.90
25582;DHT22;13462;50.764;4.332;2022-08-19T10:53:41;22.80;99.90
25582;DHT22;13462;50.764;4.332;2022-08-19T10:56:07;22.70;99.90
25582;DHT22;13462;50.764;4.332;2022-08-19T10:58:51;22.40;99.90
25582;DHT22;13462;50.764;4.332;2022-08-19T11:01:17;22.50;99.90
25582;DHT22;13462;50.764;4.332;2022-08-19T11:03:42;22.50;99.90
25582;DHT22;13462;50.764;4.332;2022-08-19T11:06:10;22.60;99.90
25582;DHT22;13462;50.764;4.332;2022-08-19T11:08:37;22.60;99.90
25582;DHT22;13462;50.764;4.332;2022-08-19T11:11:03;22.70;99.90
25582;DHT22;13462;50.764;4.332;2022-08-19T11:13:31;22.80;99.90
25582;DHT22;13462;50.764;4.332;2022-08-19T11:16:19;22.90;99.90
25582;DHT22;13462;50.764;4.332;2022-08-19T11:18:48;23.10;99.90
25582;DHT22;13462;50.764;4.332;2022-08-19T11:21:25;23.20;99.90
25582;DHT22;13462;50.764;4.332;2022-08-19T11:23:56;23.40;99.90
25582;DHT22;13462;50.764;4.332;2022-08-19T11:26:23;23.80;99.90
25582;DHT22;13462;50.764;4.332;2022-08-19T11:28:51;24.10;99.90
25582;DHT22;13462;50.764;4.332;2022-08-19T11:31:22;24.00;99.90
25582;DHT22;13462;50.764;4.332;2022-08-19T11:33:48;23.80;99.90
25582;DHT22;13462;50.764;4.332;2022-08-19T11:36:18;23.70;99.90
25582;DHT22;13462;50.764;4.332;2022-08-19T11:38:49;23.40;99.90
25582;DHT22;13462;50.764;4.332;2022-08-19T11:41:17;23.10;99.90
25582;DHT22;13462;50.764;4.332;2022-08-19T11:43:43;23.10;99.90
25582;DHT22;13462;50.764;4.332;2022-08-19T11:46:11;23.20;99.90
25582;DHT22;13462;50.764;4.332;2022-08-19T11:48:39;23.30;99.90
25582;DHT22;13462;50.764;4.332;2022-08-19T11:51:11;23.40;99.90
25582;DHT22;13462;50.764;4.332;2022-08-19T11:53:38;23.50;99.90
25582;DHT22;13462;50.764;4.332;2022-08-19T11:56:05;23.90;99.90
25582;DHT22;13462;50.764;4.332;2022-08-19T11:58:31;24.30;99.90
25582;DHT22;13462;50.764;4.332;2022-08-19T12:00:57;24.70;99.90
25582;DHT22;13462;50.764;4.332;2022-08-19T12:03:23;24.90;99.90
25582;DHT22;13462;50.764;4.332;2022-08-19T12:05:49;25.50;99.90
25582;DHT22;13462;50.764;4.332;2022-08-19T12:08:15;25.50;99.90
25582;DHT22;13462;50.764;4.332;2022-08-19T12:10:42;25.80;99.90
25582;DHT22;13462;50.764;4.332;2022-08-19T12:13:09;26.50;99.90
25582;DHT22;13462;50.764;4.332;2022-08-19T12:15:36;27.00;99.90
25582;DHT22;13462;50.764;4.332;2022-08-19T12:18:04;27.20;99.90
25582;DHT22;13462;50.764;4.332;2022-08-19T12:20:30;27.50;99.90
25582;DHT22;13462;50.764;4.332;2022-08-19T12:22:56;27.20;99.90
25582;DHT22;13462;50.764;4.332;2022-08-19T12:25:22;26.50;99.90
25582;DHT22;13462;50.764;4.332;2022-08-19T12:27:47;26.70;99.90
25582;DHT22;13462;50.764;4.332;2022-08-19T12:30:15;27.00;99.90
25582;DHT22;13462;50.764;4.332;2022-08-19T12:32:40;27.40;99.90
25582;DHT22;13462;50.764;4.332;2022-08-19T12:35:07;27.30;99.90
25582;DHT22;13462;50.764;4.332;2022-08-19T12:37:34;26.80;99.90
25582;DHT22;13462;50.764;4.332;2022-08-19T12:40:00;26.40;99.90
25582;DHT22;13462;50.764;4.332;2022-08-19T12:42:27;26.20;99.90
25582;DHT22;13462;50.764;4.332;2022-08-19T12:44:54;26.30;99.90
25582;DHT22;13462;50.764;4.332;2022-08-19T12:47:20;26.30;99.90
25582;DHT22;13462;50.764;4.332;2022-08-19T12:49:46;26.40;99.90
25582;DHT22;13462;50.764;4.332;2022-08-19T12:52:13;26.20;99.90
25582;DHT22;13462;50.764;4.332;2022-08-19T12:54:42;26.40;99.90
25582;DHT22;13462;50.764;4.332;2022-08-19T12:57:09;27.40;99.90
25582;DHT22;13462;50.764;4.332;2022-08-19T12:59:36;28.30;99.90
25582;DHT22;13462;50.764;4.332;2022-08-19T13:02:04;28.50;99.90
25582;DHT22;13462;50.764;4.332;2022-08-19T13:04:31;28.00;99.90
25582;DHT22;13462;50.764;4.332;2022-08-19T13:06:58;27.70;99.90
25582;DHT22;13462;50.764;4.332;2022-08-19T13:09:24;27.40;99.90
25582;DHT22;13462;50.764;4.332;2022-08-19T13:11:49;27.60;99.90
25582;DHT22;13462;50.764;4.332;2022-08-19T13:14:15;27.70;99.90
25582;DHT22;13462;50.764;4.332;2022-08-19T13:16:41;27.30;99.90
25582;DHT22;13462;50.764;4.332;2022-08-19T13:19:08;26.90;99.90
25582;DHT22;13462;50.764;4.332;2022-08-19T13:21:33;26.90;99.90
25582;DHT22;13462;50.764;4.332;2022-08-19T13:23:59;26.70;99.90
25582;DHT22;13462;50.764;4.332;2022-08-19T13:26:25;26.80;99.90
25582;DHT22;13462;50.764;4.332;2022-08-19T13:28:50;27.00;99.90
25582;DHT22;13462;50.764;4.332;2022-08-19T13:31:36;27.40;99.90
25582;DHT22;13462;50.764;4.332;2022-08-19T13:34:28;27.70;99.90
25582;DHT22;13462;50.764;4.332;2022-08-19T13:36:55;27.70;99.90
25582;DHT22;13462;50.764;4.332;2022-08-19T13:39:20;27.70;99.90
25582;DHT22;13462;50.764;4.332;2022-08-19T13:41:48;27.90;99.90
25582;DHT22;13462;50.764;4.332;2022-08-19T13:44:18;28.50;99.90
25582;DHT22;13462;50.764;4.332;2022-08-19T13:46:45;28.50;99.90
25582;DHT22;13462;50.764;4.332;2022-08-19T13:49:13;28.00;99.90
25582;DHT22;13462;50.764;4.332;2022-08-19T13:51:40;27.70;99.90
25582;DHT22;13462;50.764;4.332;2022-08-19T13:54:07;26.90;99.90
25582;DHT22;13462;50.764;4.332;2022-08-19T13:56:34;26.50;99.90
25582;DHT22;13462;50.764;4.332;2022-08-19T13:59:00;26.00;99.90
25582;DHT22;13462;50.764;4.332;2022-08-19T14:01:26;25.70;99.90
25582;DHT22;13462;50.764;4.332;2022-08-19T14:03:51;25.40;99.90
25582;DHT22;13462;50.764;4.332;2022-08-19T14:06:18;25.30;99.90
25582;DHT22;13462;50.764;4.332;2022-08-19T14:08:44;25.30;99.90
25582;DHT22;13462;50.764;4.332;2022-08-19T14:11:10;25.30;99.90
25582;DHT22;13462;50.764;4.332;2022-08-19T14:13:36;24.90;99.90
25582;DHT22;13462;50.764;4.332;2022-08-19T14:16:09;24.30;99.90
25582;DHT22;13462;50.764;4.332;2022-08-19T14:18:35;24.10;99.90
25582;DHT22;13462;50.764;4.332;2022-08-19T14:21:01;23.90;99.90
25582;DHT22;13462;50.764;4.332;2022-08-19T14:23:28;23.70;99.90
25582;DHT22;13462;50.764;4.332;2022-08-19T14:26:07;23.50;99.90
25582;DHT22;13462;50.764;4.332;2022-08-19T14:28:33;23.20;99.90
25582;DHT22;13462;50.764;4.332;2022-08-19T14:30:59;23.20;99.90
25582;DHT22;13462;50.764;4.332;2022-08-19T14:33:24;23.10;99.90
25582;DHT22;13462;50.764;4.332;2022-08-19T14:35:50;23.40;99.90
25582;DHT22;13462;50.764;4.332;2022-08-19T14:38:17;23.40;99.90
25582;DHT22;13462;50.764;4.332;2022-08-19T14:40:43;23.50;99.90
25582;DHT22;13462;50.764;4.332;2022-08-19T14:43:10;23.80;99.90
25582;DHT22;13462;50.764;4.332;2022-08-19T14:45:38;24.00;99.90
25582;DHT22;13462;50.764;4.332;2022-08-19T14:48:05;24.40;99.90
25582;DHT22;13462;50.764;4.332;2022-08-19T14:50:31;24.80;99.90
25582;DHT22;13462;50.764;4.332;2022-08-19T14:53:02;25.30;99.90
25582;DHT22;13462;50.764;4.332;2022-08-19T14:55:28;25.60;99.90
25582;DHT22;13462;50.764;4.332;2022-08-19T14:57:54;26.00;99.90
25582;DHT22;13462;50.764;4.332;2022-08-19T15:00:20;26.00;99.90
25582;DHT22;13462;50.764;4.332;2022-08-19T15:02:46;25.60;99.90
25582;DHT22;13462;50.764;4.332;2022-08-19T15:05:12;25.20;99.90
25582;DHT22;13462;50.764;4.332;2022-08-19T15:07:39;24.90;99.90
25582;DHT22;13462;50.764;4.332;2022-08-19T15:10:06;24.50;99.90
25582;DHT22;13462;50.764;4.332;2022-08-19T15:12:34;24.10;99.90
25582;DHT22;13462;50.764;4.332;2022-08-19T15:15:00;24.10;99.90
25582;DHT22;13462;50.764;4.332;2022-08-19T15:17:25;24.10;99.90
25582;DHT22;13462;50.764;4.332;2022-08-19T15:19:51;23.70;99.90
25582;DHT22;13462;50.764;4.332;2022-08-19T15:22:17;23.60;99.90
25582;DHT22;13462;50.764;4.332;2022-08-19T15:24:43;23.80;99.90
25582;DHT22;13462;50.764;4.332;2022-08-19T15:27:12;23.70;99.90
25582;DHT22;13462;50.764;4.332;2022-08-19T15:29:38;23.60;99.90
25582;DHT22;13462;50.764;4.332;2022-08-19T15:32:05;23.80;99.90
25582;DHT22;13462;50.764;4.332;2022-08-19T15:34:32;24.10;99.90
25582;DHT22;13462;50.764;4.332;2022-08-19T15:36:58;24.50;99.90
25582;DHT22;13462;50.764;4.332;2022-08-19T15:39:25;24.90;99.90
25582;DHT22;13462;50.764;4.332;2022-08-19T15:41:51;25.20;99.90
25582;DHT22;13462;50.764;4.332;2022-08-19T15:44:18;25.50;99.90
25582;DHT22;13462;50.764;4.332;2022-08-19T15:46:45;25.40;99.90
25582;DHT22;13462;50.764;4.332;2022-08-19T15:49:13;25.30;99.90